Belmonte, Brazil
Current Conditions -  °F | °C
As of 6:00 PM on Sunday 23 Nov 2014 (Local Time) from SBPS Reporting Station
Few Clouds Few Clouds  
Wind Chill: 77°   Ceiling: Unl
Heat Index: 78°   Visibility: 6mi
Dew Point: 72°   Wind: 9mph
Humidity: 83%   Direction: 60°ENE
Pressure: 29.91"   Gusts: NA
Location:  15.88°S, 38.89°W
Report Text: SBPS 232100Z 06008KT 9999 FEW020 25/22 Q1013
Loading
Personal Weather Stations






























Interactive Weather Map New forecast layout! Learn more

10-Day Weather Forecast

Advertisements
Track Severe Weather on mobile